Have a Safe July 4th! 

Flight Track Log - Related Links

Times and Time Zones

All times are in EDT time to prevent confusion due to time zone crossing. See the N3560F flight status page for this flight to view local times or setup timezone preferences in your user account.

Time Position Orientation Groundspeed Altitude Reporting Facility
EDT Latitude Longitude Course Direction KTS MPH feet Rate Location/Type
Tue 03:44:43 PM 39.1167 -84.4333 51° Northeast 83 96 1,400  Level Cincinnati TRACON
Tue 03:45:43 PM 39.1500 -84.4333 360° North 95 109 1,900 571 Climbing Cincinnati TRACON
Tue 03:46:49 PM 39.1667 -84.4000 57° Northeast 92 106 2,600 591 Climbing Cincinnati TRACON
Tue 03:47:55 PM 39.1833 -84.3833 38° Northeast 92 106 3,200 579 Climbing Cincinnati TRACON
Tue 03:48:43 PM 39.1833 -84.3500 90° East 90 104 3,700 632 Climbing Cincinnati TRACON
Tue 03:49:30 PM 39.1975 -84.3339 41° Northeast 90 104 4,200 611 Climbing Indianapolis Center
Tue 03:50:00 PM 39.2850 -84.1327 51° Northeast  Level Estimated
Tue 03:50:31 PM 39.2108 -84.3067 58° Northeast 91 105 4,800  Level Indianapolis Center
Tue 03:51:01 PM 39.2178 -84.2906 61° Northeast 93 107 5,000 590 Climbing Indianapolis Center
Tue 03:51:32 PM 39.2228 -84.2761 66° East 94 108 5,400 581 Climbing Indianapolis Center
Tue 03:52:03 PM 39.2267 -84.2600 73° East 92 106 5,600 590 Climbing Indianapolis Center
Tue 03:52:33 PM 39.2325 -84.2428 66° East 96 110 6,000 621 Climbing Indianapolis Center
Tue 03:53:30 PM 39.2444 -84.2153 61° Northeast 89 102 6,500 555 Climbing Indianapolis Center
Tue 03:54:32 PM 39.2603 -84.1819 58° Northeast 104 120 7,100 484 Climbing Indianapolis Center
Tue 03:55:34 PM 39.2778 -84.1508 54° Northeast 106 122 7,500 277 Climbing Indianapolis Center
Tue 03:56:42 PM 39.3047 -84.0986 56° Northeast 147 169 7,700 98 Climbing Indianapolis Center
Tue 03:57:37 PM 39.3239 -84.0558 60° Northeast 151 174 7,700  Level Indianapolis Center
Tue 03:58:38 PM 39.3478 -84.0111 55° Northeast 151 174 7,700 -52 Level Indianapolis Center
Tue 03:59:33 PM 39.3708 -83.9719 53° Northeast 152 175 7,600 -96 Descending Indianapolis Center
Tue 04:00:43 PM 39.3978 -83.9244 54° Northeast 149 171 7,500 -45 Descending Indianapolis Center
Tue 04:01:45 PM 39.4278 -83.8864 44° Northeast 149 171 7,500  Level Indianapolis Center
Tue 04:02:41 PM 39.4550 -83.8481 47° Northeast 151 174 7,500 -54 Level Indianapolis Center
Tue 04:03:36 PM 39.4800 -83.8117 48° Northeast 146 168 7,400 -52 Descending Indianapolis Center
Tue 04:04:36 PM 39.5053 -83.7700 52° Northeast 150 173 7,400  Level Indianapolis Center
Tue 04:05:31 PM 39.5325 -83.7311 48° Northeast 151 174 7,400 49 Level Indianapolis Center
Tue 04:06:38 PM 39.5583 -83.6839 55° Northeast 140 161 7,500 94 Climbing Indianapolis Center
Tue 04:07:39 PM 39.5814 -83.6417 55° Northeast 146 168 7,600  Climbing Indianapolis Center
Tue 04:08:52 PM 39.6119 -83.5897 53° Northeast 145 167 7,500 -50 Descending Indianapolis Center
Tue 04:09:40 PM 39.6300 -83.5575 54° Northeast 146 168 7,500 104 Level Indianapolis Center
Tue 04:10:47 PM 39.6581 -83.5078 54° Northeast 147 169 7,700 41 Climbing Indianapolis Center
Tue 04:12:05 PM 39.6903 -83.4539 52° Northeast 147 169 7,600 -43 Descending Indianapolis Center
Tue 04:13:07 PM 39.7158 -83.4131 51° Northeast 145 167 7,600  Level Indianapolis Center
Tue 04:13:50 PM 39.7353 -83.3872 46° Northeast 145 167 7,600  Level Indianapolis Center
Tue 04:14:44 PM 39.7561 -83.3472 56° Northeast 143 165 7,600 47 Level Indianapolis Center
Tue 04:15:57 PM 39.7881 -83.3006 48° Northeast 140 161 7,700 47 Climbing Indianapolis Center
Tue 04:16:52 PM 39.8125 -83.2639 49° Northeast 136 157 7,700 -52 Level Indianapolis Center
Tue 04:17:53 PM 39.8375 -83.2244 50° Northeast 146 168 7,600 -98 Descending Indianapolis Center
Tue 04:18:54 PM 39.8647 -83.1825 50° Northeast 147 169 7,500 -90 Descending Indianapolis Center
Tue 04:20:06 PM 39.8967 -83.1331 50° Northeast 144 166 7,400  Descending Indianapolis Center
Tue 04:21:07 PM 39.9217 -83.0936 50° Northeast 140 161 7,500 103 Climbing Indianapolis Center
Tue 04:22:02 PM 39.9439 -83.0589 50° Northeast 139 160 7,600 103 Climbing Indianapolis Center
Tue 04:23:03 PM 39.9706 -83.0222 46° Northeast 139 160 7,700 52 Climbing Indianapolis Center
Tue 04:23:57 PM 39.9928 -82.9850 52° Northeast 140 161 7,700 71 Level Indianapolis Center
Tue 04:24:28 PM 40.0042 -82.9706 44° Northeast 140 161 7,800 98 Climbing Indianapolis Center
Tue 04:24:58 PM 40.0194 -82.9483 48° Northeast 142 163 7,800  Level Indianapolis Center
Tue 04:25:30 PM 40.0344 -82.9225 53° Northeast 144 166 7,800  Level Indianapolis Center
Tue 04:26:32 PM 40.0589 -82.8806 53° Northeast 143 165 7,800  Level Indianapolis Center
Tue 04:27:34 PM 40.0822 -82.8394 53° Northeast 140 161 7,800  Level Indianapolis Center
Tue 04:28:37 PM 40.1022 -82.7947 60° Northeast 147 169 7,800 -96 Level Indianapolis Center
Tue 04:29:39 PM 40.1214 -82.7431 64° Northeast 149 171 7,600 -97 Descending Indianapolis Center
Tue 04:30:41 PM 40.1483 -82.7028 49° Northeast 149 171 7,600  Level Indianapolis Center
Tue 04:31:43 PM 40.1836 -82.6717 34° Northeast 151 174 7,600 48 Level Indianapolis Center
Tue 04:32:45 PM 40.2069 -82.6167 61° Northeast 148 170 7,700  Climbing Indianapolis Center
Tue 04:33:47 PM 40.2311 -82.5750 53° Northeast 145 167 7,600 -48 Descending Indianapolis Center
Tue 04:34:49 PM 40.2536 -82.5344 54° Northeast 148 170 7,600 48 Level Indianapolis Center
Tue 04:35:51 PM 40.2758 -82.4908 56° Northeast 144 166 7,700 47 Climbing Indianapolis Center
Tue 04:36:56 PM 40.2942 -82.4303 68° East 143 165 7,700  Level Indianapolis Center
Tue 04:37:55 PM 40.3075 -82.3828 70° East 146 168 7,700  Level Indianapolis Center
Tue 04:38:57 PM 40.3194 -82.3331 72° East 142 163 7,700  Level Indianapolis Center
Tue 04:39:59 PM 40.3317 -82.2808 73° East 147 169 7,700 -48 Level Indianapolis Center
Tue 04:41:01 PM 40.3458 -82.2314 69° East 146 168 7,600 -48 Descending Indianapolis Center
Tue 04:42:03 PM 40.3542 -82.1789 78° East 143 165 7,600 48 Level Indianapolis Center
Tue 04:43:05 PM 40.3592 -82.1278 83° East 141 162 7,700  Climbing Indianapolis Center
Tue 04:44:07 PM 40.3686 -82.0689 78° East 142 163 7,600 -97 Descending Indianapolis Center
Tue 04:45:09 PM 40.3883 -82.0183 63° Northeast 152 175 7,500 -48 Descending Indianapolis Center
Tue 04:46:11 PM 40.4100 -81.9711 59° Northeast 150 173 7,500 -194 Level Indianapolis Center
Tue 04:47:13 PM 40.4397 -81.9319 45° Northeast 150 173 7,100 -336 Descending Indianapolis Center
Tue 04:48:16 PM 40.4722 -81.8911 44° Northeast 157 181 6,800 -432 Descending Indianapolis Center
Tue 04:49:18 PM 40.5064 -81.8511 42° Northeast 162 186 6,200 -629 Descending Indianapolis Center
Tue 04:50:20 PM 40.5428 -81.8064 43° Northeast 155 178 5,500 -726 Descending Indianapolis Center
Tue 04:51:22 PM 40.5764 -81.7678 41° Northeast 158 182 4,700 -629 Descending Indianapolis Center
Tue 04:52:24 PM 40.6083 -81.7292 43° Northeast 157 181 4,200 -435 Descending Indianapolis Center
Tue 04:53:26 PM 40.6389 -81.6936 41° Northeast 152 175 3,800 -339 Descending Indianapolis Center
Tue 04:54:28 PM 40.6683 -81.6594 41° Northeast 146 168 3,500 -194 Descending Indianapolis Center
Tue 04:55:30 PM 40.6969 -81.6225 44° Northeast 143 165 3,400 -48 Descending Indianapolis Center
Tue 04:56:32 PM 40.7242 -81.5847 46° Northeast 142 163 3,400  Level Indianapolis Center
Tue 04:57:34 PM 40.7567 -81.5469 41° Northeast 137 158 3,400  Level Indianapolis Center
Tue 04:58:36 PM 40.7744 -81.5039 61° Northeast 139 160 3,400  Level Indianapolis Center
Tue 04:59:38 PM 40.7839 -81.4597 74° East 131 151 3,400  Level Indianapolis Center

Login

Don't have an account? Register now (free) for customized features, flight alerts, and more!